sensor_id;sensor_type;location;lat;lon;timestamp;P1;durP1;ratioP1;P2;durP2;ratioP2
80272;SDS011;69574;45.328;9.598;2023-06-22T00:01:19;24.20;;;19.08;;
80272;SDS011;69574;45.328;9.598;2023-06-22T00:03:45;22.88;;;19.73;;
80272;SDS011;69574;45.328;9.598;2023-06-22T00:06:12;25.13;;;20.10;;
80272;SDS011;69574;45.328;9.598;2023-06-22T00:08:38;25.60;;;20.65;;
80272;SDS011;69574;45.328;9.598;2023-06-22T00:11:03;26.65;;;21.35;;
80272;SDS011;69574;45.328;9.598;2023-06-22T00:13:29;27.95;;;21.58;;
80272;SDS011;69574;45.328;9.598;2023-06-22T00:15:54;23.25;;;20.70;;
80272;SDS011;69574;45.328;9.598;2023-06-22T00:18:20;30.75;;;22.52;;
80272;SDS011;69574;45.328;9.598;2023-06-22T00:20:45;23.73;;;20.45;;
80272;SDS011;69574;45.328;9.598;2023-06-22T00:23:13;25.27;;;20.58;;
80272;SDS011;69574;45.328;9.598;2023-06-22T00:25:41;23.08;;;20.63;;
80272;SDS011;69574;45.328;9.598;2023-06-22T00:28:06;25.08;;;20.60;;
80272;SDS011;69574;45.328;9.598;2023-06-22T00:32:58;23.23;;;19.57;;
80272;SDS011;69574;45.328;9.598;2023-06-22T00:35:24;25.90;;;20.60;;
80272;SDS011;69574;45.328;9.598;2023-06-22T00:37:54;28.38;;;19.63;;
80272;SDS011;69574;45.328;9.598;2023-06-22T00:40:27;24.17;;;21.58;;
80272;SDS011;69574;45.328;9.598;2023-06-22T00:42:52;25.33;;;20.23;;
80272;SDS011;69574;45.328;9.598;2023-06-22T00:45:18;24.10;;;20.13;;
80272;SDS011;69574;45.328;9.598;2023-06-22T00:47:43;21.90;;;19.55;;
80272;SDS011;69574;45.328;9.598;2023-06-22T00:50:09;22.75;;;20.27;;
80272;SDS011;69574;45.328;9.598;2023-06-22T00:52:38;25.70;;;21.40;;
80272;SDS011;69574;45.328;9.598;2023-06-22T00:55:09;23.52;;;20.63;;
80272;SDS011;69574;45.328;9.598;2023-06-22T00:57:36;23.10;;;19.23;;
80272;SDS011;69574;45.328;9.598;2023-06-22T01:00:02;22.33;;;19.20;;
80272;SDS011;69574;45.328;9.598;2023-06-22T01:02:31;24.20;;;20.10;;
80272;SDS011;69574;45.328;9.598;2023-06-22T01:04:57;23.55;;;21.05;;
80272;SDS011;69574;45.328;9.598;2023-06-22T01:07:24;24.27;;;20.95;;
80272;SDS011;69574;45.328;9.598;2023-06-22T01:09:54;23.17;;;20.65;;
80272;SDS011;69574;45.328;9.598;2023-06-22T01:12:22;23.50;;;20.60;;
80272;SDS011;69574;45.328;9.598;2023-06-22T01:14:50;24.42;;;21.50;;
80272;SDS011;69574;45.328;9.598;2023-06-22T01:17:18;26.38;;;22.60;;
80272;SDS011;69574;45.328;9.598;2023-06-22T01:19:44;28.15;;;22.08;;
80272;SDS011;69574;45.328;9.598;2023-06-22T01:22:12;28.85;;;23.10;;
80272;SDS011;69574;45.328;9.598;2023-06-22T01:24:41;26.27;;;23.02;;
80272;SDS011;69574;45.328;9.598;2023-06-22T01:27:13;28.50;;;22.25;;
80272;SDS011;69574;45.328;9.598;2023-06-22T01:29:43;27.17;;;22.33;;
80272;SDS011;69574;45.328;9.598;2023-06-22T01:34:57;28.90;;;21.95;;
80272;SDS011;69574;45.328;9.598;2023-06-22T01:37:23;26.10;;;22.10;;
80272;SDS011;69574;45.328;9.598;2023-06-22T01:39:48;25.83;;;22.98;;
80272;SDS011;69574;45.328;9.598;2023-06-22T01:42:15;28.00;;;22.67;;
80272;SDS011;69574;45.328;9.598;2023-06-22T01:44:42;23.50;;;21.05;;
80272;SDS011;69574;45.328;9.598;2023-06-22T01:47:08;26.52;;;22.15;;
80272;SDS011;69574;45.328;9.598;2023-06-22T01:49:34;27.23;;;21.95;;
80272;SDS011;69574;45.328;9.598;2023-06-22T01:52:00;28.40;;;23.13;;
80272;SDS011;69574;45.328;9.598;2023-06-22T01:54:26;28.08;;;23.42;;
80272;SDS011;69574;45.328;9.598;2023-06-22T01:56:51;28.75;;;23.52;;
80272;SDS011;69574;45.328;9.598;2023-06-22T01:59:17;27.83;;;23.35;;
80272;SDS011;69574;45.328;9.598;2023-06-22T02:01:47;28.23;;;22.75;;
80272;SDS011;69574;45.328;9.598;2023-06-22T02:04:18;29.95;;;23.70;;
80272;SDS011;69574;45.328;9.598;2023-06-22T02:06:45;26.95;;;23.65;;
80272;SDS011;69574;45.328;9.598;2023-06-22T02:09:12;26.70;;;22.90;;
80272;SDS011;69574;45.328;9.598;2023-06-22T02:11:39;26.92;;;22.42;;
80272;SDS011;69574;45.328;9.598;2023-06-22T02:14:06;29.08;;;23.38;;
80272;SDS011;69574;45.328;9.598;2023-06-22T02:16:32;27.65;;;24.23;;
80272;SDS011;69574;45.328;9.598;2023-06-22T02:19:00;28.90;;;24.00;;
80272;SDS011;69574;45.328;9.598;2023-06-22T02:21:28;30.52;;;24.20;;
80272;SDS011;69574;45.328;9.598;2023-06-22T02:23:54;27.13;;;24.17;;
80272;SDS011;69574;45.328;9.598;2023-06-22T02:26:19;26.63;;;23.83;;
80272;SDS011;69574;45.328;9.598;2023-06-22T02:28:45;30.75;;;24.10;;
80272;SDS011;69574;45.328;9.598;2023-06-22T02:31:11;32.40;;;24.55;;
80272;SDS011;69574;45.328;9.598;2023-06-22T02:33:37;29.05;;;23.73;;
80272;SDS011;69574;45.328;9.598;2023-06-22T02:36:04;26.52;;;23.05;;
80272;SDS011;69574;45.328;9.598;2023-06-22T02:38:30;25.92;;;22.50;;
80272;SDS011;69574;45.328;9.598;2023-06-22T02:40:59;26.30;;;23.20;;
80272;SDS011;69574;45.328;9.598;2023-06-22T02:43:25;26.40;;;23.55;;
80272;SDS011;69574;45.328;9.598;2023-06-22T02:45:51;27.65;;;23.80;;
80272;SDS011;69574;45.328;9.598;2023-06-22T02:48:16;29.05;;;23.27;;
80272;SDS011;69574;45.328;9.598;2023-06-22T02:50:42;31.13;;;24.98;;
80272;SDS011;69574;45.328;9.598;2023-06-22T02:53:09;30.60;;;25.17;;
80272;SDS011;69574;45.328;9.598;2023-06-22T02:55:35;28.92;;;24.75;;
80272;SDS011;69574;45.328;9.598;2023-06-22T02:58:00;30.02;;;25.05;;
80272;SDS011;69574;45.328;9.598;2023-06-22T03:00:30;28.67;;;25.60;;
80272;SDS011;69574;45.328;9.598;2023-06-22T03:02:56;30.25;;;26.13;;
80272;SDS011;69574;45.328;9.598;2023-06-22T03:05:22;29.63;;;25.25;;
80272;SDS011;69574;45.328;9.598;2023-06-22T03:07:48;28.52;;;25.45;;
80272;SDS011;69574;45.328;9.598;2023-06-22T03:10:15;30.75;;;25.10;;
80272;SDS011;69574;45.328;9.598;2023-06-22T03:12:41;32.15;;;27.05;;
80272;SDS011;69574;45.328;9.598;2023-06-22T03:15:08;32.20;;;26.88;;
80272;SDS011;69574;45.328;9.598;2023-06-22T03:17:34;32.55;;;25.80;;
80272;SDS011;69574;45.328;9.598;2023-06-22T03:20:00;31.55;;;25.15;;
80272;SDS011;69574;45.328;9.598;2023-06-22T03:22:25;32.55;;;23.17;;
80272;SDS011;69574;45.328;9.598;2023-06-22T03:24:51;28.08;;;23.65;;
80272;SDS011;69574;45.328;9.598;2023-06-22T03:27:18;26.85;;;23.45;;
80272;SDS011;69574;45.328;9.598;2023-06-22T03:29:44;39.97;;;25.13;;
80272;SDS011;69574;45.328;9.598;2023-06-22T03:32:10;36.28;;;24.65;;
80272;SDS011;69574;45.328;9.598;2023-06-22T03:34:35;80.25;;;29.38;;
80272;SDS011;69574;45.328;9.598;2023-06-22T03:37:04;37.67;;;24.13;;
80272;SDS011;69574;45.328;9.598;2023-06-22T03:39:29;31.00;;;22.83;;
80272;SDS011;69574;45.328;9.598;2023-06-22T03:41:55;27.00;;;20.92;;
80272;SDS011;69574;45.328;9.598;2023-06-22T03:44:22;25.80;;;20.90;;
80272;SDS011;69574;45.328;9.598;2023-06-22T03:46:47;24.52;;;20.42;;
80272;SDS011;69574;45.328;9.598;2023-06-22T03:49:13;23.05;;;20.35;;
80272;SDS011;69574;45.328;9.598;2023-06-22T03:51:39;24.23;;;20.23;;
80272;SDS011;69574;45.328;9.598;2023-06-22T03:54:04;24.73;;;21.55;;
80272;SDS011;69574;45.328;9.598;2023-06-22T03:56:30;26.65;;;22.20;;
80272;SDS011;69574;45.328;9.598;2023-06-22T03:58:56;26.60;;;22.73;;
80272;SDS011;69574;45.328;9.598;2023-06-22T04:01:23;26.70;;;22.77;;
80272;SDS011;69574;45.328;9.598;2023-06-22T04:03:49;28.70;;;24.30;;
80272;SDS011;69574;45.328;9.598;2023-06-22T04:06:15;28.30;;;24.05;;
80272;SDS011;69574;45.328;9.598;2023-06-22T04:08:40;31.60;;;25.60;;
80272;SDS011;69574;45.328;9.598;2023-06-22T04:11:06;28.27;;;25.23;;
80272;SDS011;69574;45.328;9.598;2023-06-22T04:13:31;31.02;;;25.80;;
80272;SDS011;69574;45.328;9.598;2023-06-22T04:15:57;28.48;;;24.95;;
80272;SDS011;69574;45.328;9.598;2023-06-22T04:18:24;29.13;;;24.42;;
80272;SDS011;69574;45.328;9.598;2023-06-22T04:20:50;26.63;;;23.65;;
80272;SDS011;69574;45.328;9.598;2023-06-22T04:23:16;27.00;;;23.75;;
80272;SDS011;69574;45.328;9.598;2023-06-22T04:25:41;28.38;;;24.75;;
80272;SDS011;69574;45.328;9.598;2023-06-22T04:28:07;28.55;;;24.63;;
80272;SDS011;69574;45.328;9.598;2023-06-22T04:30:37;34.83;;;25.02;;
80272;SDS011;69574;45.328;9.598;2023-06-22T04:33:11;29.17;;;24.67;;
80272;SDS011;69574;45.328;9.598;2023-06-22T04:35:38;34.58;;;26.23;;
80272;SDS011;69574;45.328;9.598;2023-06-22T04:38:06;32.40;;;26.67;;
80272;SDS011;69574;45.328;9.598;2023-06-22T04:40:32;33.00;;;26.30;;
80272;SDS011;69574;45.328;9.598;2023-06-22T04:42:57;32.65;;;25.85;;
80272;SDS011;69574;45.328;9.598;2023-06-22T04:45:23;31.45;;;27.15;;
80272;SDS011;69574;45.328;9.598;2023-06-22T04:47:48;34.88;;;26.85;;
80272;SDS011;69574;45.328;9.598;2023-06-22T04:50:14;33.35;;;28.05;;
80272;SDS011;69574;45.328;9.598;2023-06-22T04:52:41;35.80;;;27.52;;
80272;SDS011;69574;45.328;9.598;2023-06-22T04:55:07;32.38;;;26.77;;
80272;SDS011;69574;45.328;9.598;2023-06-22T04:57:34;35.97;;;28.25;;
80272;SDS011;69574;45.328;9.598;2023-06-22T04:59:59;31.15;;;26.52;;
80272;SDS011;69574;45.328;9.598;2023-06-22T05:02:37;28.75;;;25.65;;
80272;SDS011;69574;45.328;9.598;2023-06-22T05:07:32;29.95;;;25.75;;
80272;SDS011;69574;45.328;9.598;2023-06-22T05:09:59;29.73;;;25.35;;
80272;SDS011;69574;45.328;9.598;2023-06-22T05:12:24;28.67;;;25.63;;
80272;SDS011;69574;45.328;9.598;2023-06-22T05:14:50;33.13;;;27.35;;
80272;SDS011;69574;45.328;9.598;2023-06-22T05:17:16;31.80;;;27.73;;
80272;SDS011;69574;45.328;9.598;2023-06-22T05:19:44;29.50;;;26.30;;
80272;SDS011;69574;45.328;9.598;2023-06-22T05:22:13;29.63;;;26.50;;
80272;SDS011;69574;45.328;9.598;2023-06-22T05:24:39;29.38;;;24.60;;
80272;SDS011;69574;45.328;9.598;2023-06-22T05:27:06;27.30;;;24.38;;
80272;SDS011;69574;45.328;9.598;2023-06-22T05:29:32;30.52;;;24.48;;
80272;SDS011;69574;45.328;9.598;2023-06-22T05:31:57;28.98;;;25.85;;
80272;SDS011;69574;45.328;9.598;2023-06-22T05:34:23;31.63;;;28.05;;
80272;SDS011;69574;45.328;9.598;2023-06-22T05:36:48;29.95;;;26.25;;
80272;SDS011;69574;45.328;9.598;2023-06-22T05:39:14;30.42;;;27.13;;
80272;SDS011;69574;45.328;9.598;2023-06-22T05:41:40;32.13;;;28.02;;
80272;SDS011;69574;45.328;9.598;2023-06-22T05:44:07;37.55;;;31.48;;
80272;SDS011;69574;45.328;9.598;2023-06-22T05:46:33;37.55;;;31.92;;
80272;SDS011;69574;45.328;9.598;2023-06-22T05:48:58;42.53;;;33.33;;
80272;SDS011;69574;45.328;9.598;2023-06-22T05:51:24;36.30;;;31.15;;
80272;SDS011;69574;45.328;9.598;2023-06-22T05:53:49;39.58;;;32.10;;
80272;SDS011;69574;45.328;9.598;2023-06-22T05:56:15;40.30;;;33.45;;
80272;SDS011;69574;45.328;9.598;2023-06-22T05:58:41;37.35;;;31.63;;
80272;SDS011;69574;45.328;9.598;2023-06-22T06:01:08;36.80;;;31.45;;
80272;SDS011;69574;45.328;9.598;2023-06-22T06:03:34;38.47;;;30.80;;
80272;SDS011;69574;45.328;9.598;2023-06-22T06:08:31;34.90;;;30.27;;
80272;SDS011;69574;45.328;9.598;2023-06-22T06:10:57;38.67;;;31.85;;
80272;SDS011;69574;45.328;9.598;2023-06-22T06:13:22;39.63;;;32.40;;
80272;SDS011;69574;45.328;9.598;2023-06-22T06:15:48;36.08;;;31.65;;
80272;SDS011;69574;45.328;9.598;2023-06-22T06:18:18;37.90;;;28.25;;
80272;SDS011;69574;45.328;9.598;2023-06-22T06:20:43;41.97;;;31.92;;
80272;SDS011;69574;45.328;9.598;2023-06-22T06:23:09;36.45;;;30.35;;
80272;SDS011;69574;45.328;9.598;2023-06-22T06:25:34;41.25;;;30.40;;
80272;SDS011;69574;45.328;9.598;2023-06-22T06:28:00;46.35;;;29.67;;
80272;SDS011;69574;45.328;9.598;2023-06-22T06:30:25;42.00;;;32.75;;
80272;SDS011;69574;45.328;9.598;2023-06-22T06:32:51;42.35;;;32.08;;
80272;SDS011;69574;45.328;9.598;2023-06-22T06:35:18;43.10;;;32.85;;
80272;SDS011;69574;45.328;9.598;2023-06-22T06:37:44;37.47;;;32.40;;
80272;SDS011;69574;45.328;9.598;2023-06-22T06:42:35;103.00;;;37.40;;
80272;SDS011;69574;45.328;9.598;2023-06-22T06:45:03;49.33;;;35.65;;
80272;SDS011;69574;45.328;9.598;2023-06-22T06:47:29;53.63;;;37.42;;
80272;SDS011;69574;45.328;9.598;2023-06-22T06:49:54;45.97;;;35.80;;
80272;SDS011;69574;45.328;9.598;2023-06-22T06:52:21;54.17;;;36.95;;
80272;SDS011;69574;45.328;9.598;2023-06-22T06:54:47;46.13;;;35.03;;
80272;SDS011;69574;45.328;9.598;2023-06-22T06:57:12;92.32;;;36.97;;
80272;SDS011;69574;45.328;9.598;2023-06-22T06:59:38;51.15;;;34.63;;
80272;SDS011;69574;45.328;9.598;2023-06-22T07:02:04;45.03;;;34.90;;
80272;SDS011;69574;45.328;9.598;2023-06-22T07:04:30;50.58;;;35.70;;
80272;SDS011;69574;45.328;9.598;2023-06-22T07:06:55;90.78;;;37.65;;
80272;SDS011;69574;45.328;9.598;2023-06-22T07:09:22;43.78;;;35.25;;
80272;SDS011;69574;45.328;9.598;2023-06-22T07:11:48;44.70;;;35.22;;
80272;SDS011;69574;45.328;9.598;2023-06-22T07:14:13;47.17;;;34.08;;
80272;SDS011;69574;45.328;9.598;2023-06-22T07:16:39;49.53;;;35.20;;
80272;SDS011;69574;45.328;9.598;2023-06-22T07:19:04;41.60;;;33.47;;
80272;SDS011;69574;45.328;9.598;2023-06-22T07:21:30;51.00;;;35.25;;
80272;SDS011;69574;45.328;9.598;2023-06-22T07:23:56;46.08;;;33.83;;
80272;SDS011;69574;45.328;9.598;2023-06-22T07:26:23;39.97;;;34.75;;
80272;SDS011;69574;45.328;9.598;2023-06-22T07:28:49;42.38;;;35.95;;
80272;SDS011;69574;45.328;9.598;2023-06-22T07:31:16;41.83;;;34.65;;
80272;SDS011;69574;45.328;9.598;2023-06-22T07:33:41;46.35;;;36.72;;
80272;SDS011;69574;45.328;9.598;2023-06-22T07:36:07;41.97;;;35.53;;
80272;SDS011;69574;45.328;9.598;2023-06-22T07:38:33;44.83;;;36.35;;
80272;SDS011;69574;45.328;9.598;2023-06-22T07:40:59;47.75;;;36.03;;
80272;SDS011;69574;45.328;9.598;2023-06-22T07:43:26;42.40;;;35.15;;
80272;SDS011;69574;45.328;9.598;2023-06-22T07:45:52;46.60;;;35.75;;
80272;SDS011;69574;45.328;9.598;2023-06-22T07:48:17;43.47;;;35.67;;
80272;SDS011;69574;45.328;9.598;2023-06-22T07:50:43;45.92;;;34.53;;
80272;SDS011;69574;45.328;9.598;2023-06-22T07:53:08;43.40;;;33.38;;
80272;SDS011;69574;45.328;9.598;2023-06-22T07:55:34;43.40;;;36.03;;
80272;SDS011;69574;45.328;9.598;2023-06-22T07:57:59;43.08;;;36.35;;
80272;SDS011;69574;45.328;9.598;2023-06-22T08:00:26;41.10;;;34.15;;
80272;SDS011;69574;45.328;9.598;2023-06-22T08:02:52;40.10;;;34.08;;
80272;SDS011;69574;45.328;9.598;2023-06-22T08:06:06;41.67;;;33.28;;
80272;SDS011;69574;45.328;9.598;2023-06-22T08:08:34;39.72;;;31.38;;
80272;SDS011;69574;45.328;9.598;2023-06-22T08:11:00;45.15;;;33.30;;
80272;SDS011;69574;45.328;9.598;2023-06-22T08:13:25;101.78;;;36.47;;
80272;SDS011;69574;45.328;9.598;2023-06-22T08:15:51;46.17;;;32.97;;
80272;SDS011;69574;45.328;9.598;2023-06-22T08:18:16;46.92;;;35.60;;
80272;SDS011;69574;45.328;9.598;2023-06-22T08:20:45;43.13;;;31.67;;
80272;SDS011;69574;45.328;9.598;2023-06-22T08:23:12;52.92;;;40.15;;
80272;SDS011;69574;45.328;9.598;2023-06-22T08:25:38;42.72;;;31.75;;
80272;SDS011;69574;45.328;9.598;2023-06-22T08:28:04;250.80;;;81.05;;
80272;SDS011;69574;45.328;9.598;2023-06-22T08:33:35;73.97;;;32.90;;
80272;SDS011;69574;45.328;9.598;2023-06-22T08:35:45;62.67;;;32.42;;
80272;SDS011;69574;45.328;9.598;2023-06-22T08:38:12;41.78;;;30.05;;
80272;SDS011;69574;45.328;9.598;2023-06-22T08:40:40;45.65;;;30.23;;
80272;SDS011;69574;45.328;9.598;2023-06-22T08:43:06;39.47;;;30.88;;
80272;SDS011;69574;45.328;9.598;2023-06-22T08:45:32;41.65;;;30.55;;
80272;SDS011;69574;45.328;9.598;2023-06-22T08:47:57;41.25;;;30.27;;
80272;SDS011;69574;45.328;9.598;2023-06-22T08:50:23;41.38;;;32.65;;
80272;SDS011;69574;45.328;9.598;2023-06-22T08:52:48;39.80;;;31.38;;
80272;SDS011;69574;45.328;9.598;2023-06-22T08:55:16;39.53;;;30.27;;
80272;SDS011;69574;45.328;9.598;2023-06-22T08:57:41;46.10;;;30.73;;
80272;SDS011;69574;45.328;9.598;2023-06-22T09:00:08;37.78;;;30.45;;
80272;SDS011;69574;45.328;9.598;2023-06-22T09:02:41;39.10;;;30.98;;
80272;SDS011;69574;45.328;9.598;2023-06-22T09:05:07;37.35;;;29.92;;
80272;SDS011;69574;45.328;9.598;2023-06-22T09:07:33;40.42;;;32.90;;
80272;SDS011;69574;45.328;9.598;2023-06-22T09:09:59;37.72;;;30.88;;
80272;SDS011;69574;45.328;9.598;2023-06-22T09:12:26;38.75;;;31.63;;
80272;SDS011;69574;45.328;9.598;2023-06-22T09:14:55;38.58;;;32.33;;
80272;SDS011;69574;45.328;9.598;2023-06-22T09:17:21;45.83;;;32.88;;
80272;SDS011;69574;45.328;9.598;2023-06-22T09:19:47;40.75;;;30.90;;
80272;SDS011;69574;45.328;9.598;2023-06-22T09:22:13;45.65;;;30.25;;
80272;SDS011;69574;45.328;9.598;2023-06-22T09:24:39;41.38;;;32.83;;
80272;SDS011;69574;45.328;9.598;2023-06-22T09:27:05;38.78;;;30.92;;
80272;SDS011;69574;45.328;9.598;2023-06-22T09:29:32;38.70;;;30.60;;
80272;SDS011;69574;45.328;9.598;2023-06-22T09:31:59;38.53;;;29.60;;
80272;SDS011;69574;45.328;9.598;2023-06-22T09:34:24;41.30;;;32.92;;
80272;SDS011;69574;45.328;9.598;2023-06-22T09:36:50;38.67;;;30.95;;
80272;SDS011;69574;45.328;9.598;2023-06-22T09:39:16;40.45;;;32.03;;
80272;SDS011;69574;45.328;9.598;2023-06-22T09:44:07;43.17;;;34.37;;
80272;SDS011;69574;45.328;9.598;2023-06-22T09:46:36;47.65;;;37.75;;
80272;SDS011;69574;45.328;9.598;2023-06-22T09:49:02;65.95;;;37.60;;
80272;SDS011;69574;45.328;9.598;2023-06-22T09:51:28;59.08;;;38.28;;
80272;SDS011;69574;45.328;9.598;2023-06-22T09:53:53;66.07;;;49.47;;
80272;SDS011;69574;45.328;9.598;2023-06-22T09:56:21;46.60;;;38.38;;
80272;SDS011;69574;45.328;9.598;2023-06-22T09:58:46;39.28;;;31.67;;
80272;SDS011;69574;45.328;9.598;2023-06-22T10:01:12;41.03;;;33.05;;
80272;SDS011;69574;45.328;9.598;2023-06-22T10:03:43;40.33;;;32.72;;
80272;SDS011;69574;45.328;9.598;2023-06-22T10:06:09;50.90;;;33.42;;
80272;SDS011;69574;45.328;9.598;2023-06-22T10:08:35;31.38;;;25.45;;
80272;SDS011;69574;45.328;9.598;2023-06-22T10:11:01;34.60;;;27.15;;
80272;SDS011;69574;45.328;9.598;2023-06-22T10:13:26;31.98;;;23.25;;
80272;SDS011;69574;45.328;9.598;2023-06-22T10:15:52;29.42;;;24.48;;
80272;SDS011;69574;45.328;9.598;2023-06-22T10:20:48;34.13;;;24.97;;
80272;SDS011;69574;45.328;9.598;2023-06-22T10:23:14;32.95;;;27.30;;
80272;SDS011;69574;45.328;9.598;2023-06-22T10:25:41;166.63;;;33.33;;
80272;SDS011;69574;45.328;9.598;2023-06-22T10:28:06;29.52;;;24.15;;
80272;SDS011;69574;45.328;9.598;2023-06-22T10:32:57;26.33;;;21.33;;
80272;SDS011;69574;45.328;9.598;2023-06-22T10:37:52;25.23;;;20.15;;
80272;SDS011;69574;45.328;9.598;2023-06-22T10:40:21;25.50;;;19.48;;
80272;SDS011;69574;45.328;9.598;2023-06-22T10:42:47;25.83;;;19.42;;
80272;SDS011;69574;45.328;9.598;2023-06-22T10:45:18;27.35;;;21.08;;
80272;SDS011;69574;45.328;9.598;2023-06-22T10:47:44;23.42;;;18.90;;
80272;SDS011;69574;45.328;9.598;2023-06-22T10:52:36;21.63;;;16.35;;
80272;SDS011;69574;45.328;9.598;2023-06-22T10:55:05;23.50;;;16.48;;
80272;SDS011;69574;45.328;9.598;2023-06-22T10:57:30;20.50;;;15.05;;
80272;SDS011;69574;45.328;9.598;2023-06-22T11:02:21;17.83;;;14.83;;
80272;SDS011;69574;45.328;9.598;2023-06-22T11:07:12;20.25;;;14.15;;
80272;SDS011;69574;45.328;9.598;2023-06-22T11:09:39;23.08;;;13.57;;
80272;SDS011;69574;45.328;9.598;2023-06-22T11:14:33;16.98;;;12.05;;
80272;SDS011;69574;45.328;9.598;2023-06-22T11:16:59;17.25;;;12.52;;
80272;SDS011;69574;45.328;9.598;2023-06-22T11:21:50;16.67;;;12.83;;
80272;SDS011;69574;45.328;9.598;2023-06-22T11:26:41;19.33;;;14.50;;
80272;SDS011;69574;45.328;9.598;2023-06-22T11:31:35;18.88;;;13.75;;
80272;SDS011;69574;45.328;9.598;2023-06-22T11:34:03;17.02;;;14.35;;
80272;SDS011;69574;45.328;9.598;2023-06-22T11:36:29;15.82;;;12.77;;
80272;SDS011;69574;45.328;9.598;2023-06-22T11:38:58;19.80;;;13.93;;
80272;SDS011;69574;45.328;9.598;2023-06-22T11:43:49;17.93;;;11.33;;
80272;SDS011;69574;45.328;9.598;2023-06-22T11:46:16;16.17;;;10.10;;
80272;SDS011;69574;45.328;9.598;2023-06-22T11:48:44;13.07;;;9.27;;
80272;SDS011;69574;45.328;9.598;2023-06-22T11:51:10;13.82;;;10.00;;
80272;SDS011;69574;45.328;9.598;2023-06-22T11:56:02;13.90;;;9.88;;
80272;SDS011;69574;45.328;9.598;2023-06-22T12:00:59;13.37;;;8.53;;
80272;SDS011;69574;45.328;9.598;2023-06-22T12:03:24;11.93;;;9.00;;
80272;SDS011;69574;45.328;9.598;2023-06-22T12:05:52;13.18;;;9.85;;
80272;SDS011;69574;45.328;9.598;2023-06-22T12:08:18;10.98;;;8.60;;
80272;SDS011;69574;45.328;9.598;2023-06-22T12:10:45;14.70;;;10.07;;
80272;SDS011;69574;45.328;9.598;2023-06-22T12:15:35;24.85;;;11.10;;
80272;SDS011;69574;45.328;9.598;2023-06-22T12:18:01;17.85;;;10.95;;
80272;SDS011;69574;45.328;9.598;2023-06-22T12:20:27;15.70;;;11.73;;
80272;SDS011;69574;45.328;9.598;2023-06-22T12:22:54;17.63;;;10.68;;
80272;SDS011;69574;45.328;9.598;2023-06-22T12:25:22;42.05;;;12.70;;
80272;SDS011;69574;45.328;9.598;2023-06-22T12:27:47;25.58;;;11.23;;
80272;SDS011;69574;45.328;9.598;2023-06-22T12:32:38;16.27;;;10.83;;
80272;SDS011;69574;45.328;9.598;2023-06-22T12:35:04;12.50;;;10.02;;
80272;SDS011;69574;45.328;9.598;2023-06-22T12:37:36;13.55;;;11.23;;
80272;SDS011;69574;45.328;9.598;2023-06-22T12:40:04;17.02;;;11.07;;
80272;SDS011;69574;45.328;9.598;2023-06-22T12:42:33;12.70;;;10.10;;
80272;SDS011;69574;45.328;9.598;2023-06-22T12:44:58;12.10;;;10.10;;
80272;SDS011;69574;45.328;9.598;2023-06-22T12:49:50;14.23;;;10.75;;
80272;SDS011;69574;45.328;9.598;2023-06-22T12:54:40;12.37;;;10.00;;
80272;SDS011;69574;45.328;9.598;2023-06-22T12:59:33;12.83;;;9.77;;
80272;SDS011;69574;45.328;9.598;2023-06-22T13:01:58;13.57;;;9.95;;
80272;SDS011;69574;45.328;9.598;2023-06-22T13:06:49;10.85;;;9.38;;
80272;SDS011;69574;45.328;9.598;2023-06-22T13:11:40;15.20;;;9.43;;
80272;SDS011;69574;45.328;9.598;2023-06-22T13:16:32;24.23;;;10.13;;
80272;SDS011;69574;45.328;9.598;2023-06-22T13:18:58;42.47;;;12.20;;
80272;SDS011;69574;45.328;9.598;2023-06-22T13:23:49;16.60;;;9.23;;
80272;SDS011;69574;45.328;9.598;2023-06-22T13:28:39;11.93;;;8.87;;
80272;SDS011;69574;45.328;9.598;2023-06-22T13:33:32;14.98;;;8.43;;
80272;SDS011;69574;45.328;9.598;2023-06-22T13:35:57;13.13;;;9.05;;
80272;SDS011;69574;45.328;9.598;2023-06-22T13:40:48;12.67;;;8.63;;
80272;SDS011;69574;45.328;9.598;2023-06-22T13:45:40;11.35;;;9.13;;
80272;SDS011;69574;45.328;9.598;2023-06-22T13:48:05;11.00;;;7.88;;
80272;SDS011;69574;45.328;9.598;2023-06-22T13:50:32;12.63;;;8.90;;
80272;SDS011;69574;45.328;9.598;2023-06-22T13:52:58;9.90;;;8.13;;
80272;SDS011;69574;45.328;9.598;2023-06-22T13:57:49;14.03;;;9.40;;
80272;SDS011;69574;45.328;9.598;2023-06-22T14:02:39;12.80;;;9.03;;
80272;SDS011;69574;45.328;9.598;2023-06-22T14:05:06;13.30;;;8.70;;
80272;SDS011;69574;45.328;9.598;2023-06-22T14:09:59;12.55;;;9.32;;
80272;SDS011;69574;45.328;9.598;2023-06-22T14:12:24;13.57;;;8.50;;
80272;SDS011;69574;45.328;9.598;2023-06-22T14:17:15;13.33;;;8.80;;
80272;SDS011;69574;45.328;9.598;2023-06-22T14:22:07;11.25;;;7.78;;
80272;SDS011;69574;45.328;9.598;2023-06-22T14:26:59;10.75;;;8.15;;
80272;SDS011;69574;45.328;9.598;2023-06-22T14:29:27;11.48;;;7.90;;
80272;SDS011;69574;45.328;9.598;2023-06-22T14:34:18;10.27;;;7.70;;
80272;SDS011;69574;45.328;9.598;2023-06-22T14:36:44;12.27;;;8.48;;
80272;SDS011;69574;45.328;9.598;2023-06-22T14:39:09;13.95;;;9.00;;
80272;SDS011;69574;45.328;9.598;2023-06-22T14:44:02;14.70;;;9.53;;
80272;SDS011;69574;45.328;9.598;2023-06-22T14:46:28;10.85;;;8.20;;
80272;SDS011;69574;45.328;9.598;2023-06-22T14:51:18;10.47;;;8.73;;
80272;SDS011;69574;45.328;9.598;2023-06-22T14:56:09;13.83;;;9.37;;
80272;SDS011;69574;45.328;9.598;2023-06-22T14:58:35;15.00;;;8.98;;
80272;SDS011;69574;45.328;9.598;2023-06-22T15:01:04;15.38;;;9.68;;
80272;SDS011;69574;45.328;9.598;2023-06-22T15:03:30;13.23;;;9.10;;
80272;SDS011;69574;45.328;9.598;2023-06-22T15:05:57;10.90;;;8.43;;
80272;SDS011;69574;45.328;9.598;2023-06-22T15:08:23;13.02;;;8.40;;
80272;SDS011;69574;45.328;9.598;2023-06-22T15:13:14;13.10;;;9.30;;
80272;SDS011;69574;45.328;9.598;2023-06-22T15:15:39;10.27;;;8.95;;
80272;SDS011;69574;45.328;9.598;2023-06-22T15:18:06;11.52;;;8.75;;
80272;SDS011;69574;45.328;9.598;2023-06-22T15:20:32;11.20;;;9.95;;
80272;SDS011;69574;45.328;9.598;2023-06-22T15:25:23;12.23;;;9.07;;
80272;SDS011;69574;45.328;9.598;2023-06-22T15:27:49;16.30;;;9.57;;
80272;SDS011;69574;45.328;9.598;2023-06-22T15:30:15;11.68;;;8.43;;
80272;SDS011;69574;45.328;9.598;2023-06-22T15:32:42;15.13;;;8.80;;
80272;SDS011;69574;45.328;9.598;2023-06-22T15:35:09;14.38;;;9.80;;
80272;SDS011;69574;45.328;9.598;2023-06-22T15:37:35;15.57;;;10.57;;
80272;SDS011;69574;45.328;9.598;2023-06-22T15:42:26;16.07;;;10.70;;
80272;SDS011;69574;45.328;9.598;2023-06-22T15:47:17;27.00;;;11.13;;
80272;SDS011;69574;45.328;9.598;2023-06-22T15:49:47;34.80;;;12.55;;
80272;SDS011;69574;45.328;9.598;2023-06-22T15:52:14;26.48;;;12.20;;
80272;SDS011;69574;45.328;9.598;2023-06-22T15:54:44;21.52;;;11.25;;
80272;SDS011;69574;45.328;9.598;2023-06-22T15:59:38;17.25;;;9.88;;
80272;SDS011;69574;45.328;9.598;2023-06-22T16:04:28;20.03;;;10.67;;
80272;SDS011;69574;45.328;9.598;2023-06-22T16:09:21;21.57;;;11.63;;
80272;SDS011;69574;45.328;9.598;2023-06-22T16:11:46;26.70;;;11.10;;
80272;SDS011;69574;45.328;9.598;2023-06-22T16:16:37;19.03;;;9.40;;
80272;SDS011;69574;45.328;9.598;2023-06-22T16:21:28;16.87;;;11.33;;
80272;SDS011;69574;45.328;9.598;2023-06-22T16:26:21;17.17;;;10.47;;
80272;SDS011;69574;45.328;9.598;2023-06-22T16:28:47;16.00;;;10.25;;